createdAt,value
2022-10-01T00:02:02.638Z,6.00
2022-10-01T00:04:31.126Z,8.93
2022-10-01T00:07:03.441Z,21.03
2022-10-01T00:09:34.606Z,25.63
2022-10-01T00:12:03.223Z,23.37
2022-10-01T00:14:31.524Z,20.80
2022-10-01T00:16:59.886Z,28.33
2022-10-01T00:19:28.316Z,24.90
2022-10-01T00:21:56.613Z,22.90
2022-10-01T00:24:24.853Z,16.57
2022-10-01T00:26:53.503Z,18.27
2022-10-01T00:29:21.746Z,15.97
2022-10-01T00:31:50.064Z,15.87
2022-10-01T00:34:18.386Z,16.03
2022-10-01T00:36:46.620Z,14.87
2022-10-01T00:39:15.140Z,22.70
2022-10-01T00:41:43.620Z,16.23
2022-10-01T00:44:33.854Z,12.57
2022-10-01T00:47:08.887Z,18.20
2022-10-01T00:49:37.405Z,17.90
2022-10-01T00:52:07.893Z,16.63
2022-10-01T00:54:59.338Z,11.87
2022-10-01T00:57:27.558Z,9.47
2022-10-01T00:59:57.062Z,9.43
2022-10-01T01:02:25.302Z,10.70
2022-10-01T01:04:53.615Z,6.10
2022-10-01T01:07:21.892Z,9.50
2022-10-01T01:09:50.168Z,7.33
2022-10-01T01:12:36.872Z,6.67
2022-10-01T01:15:30.548Z,7.83
2022-10-01T01:18:22.402Z,6.33
2022-10-01T01:20:51.987Z,5.87
2022-10-01T01:23:51.930Z,5.20
2022-10-01T01:26:43.148Z,4.73
2022-10-01T01:29:18.499Z,4.97
2022-10-01T01:31:46.995Z,4.30
2022-10-01T01:34:22.079Z,3.87
2022-10-01T01:36:58.874Z,3.37
2022-10-01T01:39:27.694Z,4.03
2022-10-01T01:41:59.694Z,3.90
2022-10-01T01:44:30.117Z,3.43
2022-10-01T01:46:58.387Z,3.67
2022-10-01T01:49:26.635Z,6.20
2022-10-01T01:51:59.835Z,5.20
2022-10-01T01:54:29.794Z,3.90
2022-10-01T01:56:58.608Z,3.20
2022-10-01T01:59:26.949Z,3.47
2022-10-01T02:01:55.344Z,3.23
2022-10-01T02:04:49.844Z,2.77
2022-10-01T02:07:29.274Z,2.10
2022-10-01T02:10:12.751Z,2.07
2022-10-01T02:12:53.920Z,4.67
2022-10-01T02:16:12.459Z,2.73
2022-10-01T02:19:06.518Z,2.77
2022-10-01T02:21:41.288Z,2.47
2022-10-01T02:24:57.277Z,2.27
2022-10-01T02:27:51.872Z,3.17
2022-10-01T02:30:20.286Z,2.50
2022-10-01T02:32:48.738Z,3.77
2022-10-01T02:35:18.012Z,1.67
2022-10-01T02:37:47.599Z,2.27
2022-10-01T02:40:17.153Z,1.90
2022-10-01T02:42:50.480Z,2.00
2022-10-01T02:45:23.062Z,1.73
2022-10-01T02:48:02.741Z,1.70
2022-10-01T02:50:54.450Z,2.17
2022-10-01T02:53:26.959Z,2.60
2022-10-01T02:55:55.236Z,1.83
2022-10-01T02:58:23.478Z,2.43
2022-10-01T03:00:53.343Z,1.87
2022-10-01T03:03:21.541Z,2.03
2022-10-01T03:05:49.853Z,6.20
2022-10-01T03:08:18.322Z,4.13
2022-10-01T03:10:47.009Z,1.80
2022-10-01T03:13:15.333Z,2.00
2022-10-01T03:15:46.367Z,2.20
2022-10-01T03:18:14.606Z,2.57
2022-10-01T03:20:43.018Z,5.23
2022-10-01T03:23:11.283Z,2.00
2022-10-01T03:25:39.528Z,2.37
2022-10-01T03:28:07.760Z,2.40
2022-10-01T03:30:36.140Z,2.73
2022-10-01T03:33:04.486Z,3.60
2022-10-01T03:35:32.758Z,4.17
2022-10-01T03:38:03.039Z,8.43
2022-10-01T03:40:33.655Z,6.00
2022-10-01T03:43:02.254Z,6.87
2022-10-01T03:45:30.534Z,8.57
2022-10-01T03:47:58.838Z,6.80
2022-10-01T03:50:27.093Z,6.33
2022-10-01T03:52:55.408Z,5.40
2022-10-01T03:55:25.439Z,6.10
2022-10-01T03:57:53.702Z,5.83
2022-10-01T04:00:22.316Z,5.30
2022-10-01T04:02:50.611Z,5.83
2022-10-01T04:05:18.973Z,6.30
2022-10-01T04:07:48.128Z,7.30
2022-10-01T04:10:16.461Z,4.90
2022-10-01T04:12:44.740Z,5.20
2022-10-01T04:15:13.119Z,5.70
2022-10-01T04:17:45.740Z,7.10
2022-10-01T04:20:14.664Z,6.50
2022-10-01T04:22:43.082Z,6.37
2022-10-01T04:25:11.410Z,7.40
2022-10-01T04:27:40.448Z,8.33
2022-10-01T04:30:09.564Z,9.03
2022-10-01T04:32:38.615Z,6.50
2022-10-01T04:35:07.433Z,6.80
2022-10-01T04:37:35.990Z,8.27
2022-10-01T04:40:04.995Z,8.40
2022-10-01T04:42:33.248Z,5.67
2022-10-01T04:45:01.552Z,5.10
2022-10-01T04:47:29.924Z,6.97
2022-10-01T04:49:58.225Z,10.53
2022-10-01T04:52:26.752Z,9.23
2022-10-01T04:54:54.987Z,7.93
2022-10-01T04:57:23.227Z,9.63
2022-10-01T04:59:51.458Z,10.47
2022-10-01T05:02:19.875Z,5.40
2022-10-01T05:04:48.676Z,5.27
2022-10-01T05:07:17.028Z,5.17
2022-10-01T05:09:46.257Z,3.83
2022-10-01T05:12:14.867Z,3.80
2022-10-01T05:14:43.291Z,9.30
2022-10-01T05:17:11.651Z,5.23
2022-10-01T05:19:39.892Z,3.60
2022-10-01T05:22:08.177Z,3.50
2022-10-01T05:24:36.910Z,4.53
2022-10-01T05:27:05.255Z,3.80
2022-10-01T05:29:33.746Z,3.67
2022-10-01T05:32:03.197Z,3.53
2022-10-01T05:34:31.930Z,6.03
2022-10-01T05:37:01.108Z,6.40
2022-10-01T05:39:33.182Z,5.83
2022-10-01T05:42:06.410Z,6.80
2022-10-01T05:44:38.131Z,5.13
2022-10-01T05:47:07.089Z,6.00
2022-10-01T05:49:35.391Z,7.90
2022-10-01T05:52:04.975Z,5.33
2022-10-01T05:54:33.310Z,11.57
2022-10-01T05:57:01.752Z,8.63
2022-10-01T05:59:31.995Z,6.97
2022-10-01T06:02:00.945Z,9.00
2022-10-01T06:04:29.506Z,8.73
2022-10-01T06:06:57.962Z,6.20
2022-10-01T06:09:26.469Z,8.70
2022-10-01T06:11:55.514Z,8.40
2022-10-01T06:14:23.965Z,7.67
2022-10-01T06:16:55.640Z,7.17
2022-10-01T06:19:24.335Z,9.63
2022-10-01T06:21:52.655Z,7.87
2022-10-01T06:24:20.994Z,7.67
2022-10-01T06:26:49.512Z,6.10
2022-10-01T06:29:17.884Z,8.40
2022-10-01T06:31:46.432Z,7.07
2022-10-01T06:34:14.751Z,6.88
2022-10-01T06:36:43.075Z,8.40
2022-10-01T06:39:13.063Z,7.03
2022-10-01T06:41:43.864Z,9.37
2022-10-01T06:44:16.534Z,10.93
2022-10-01T06:46:45.127Z,8.20
2022-10-01T06:49:14.159Z,9.13
2022-10-01T06:52:00.826Z,9.93
2022-10-01T06:54:29.224Z,14.53
2022-10-01T06:56:57.746Z,10.25
2022-10-01T06:59:27.145Z,11.45
2022-10-01T07:01:56.591Z,9.65
2022-10-01T07:04:25.238Z,11.38
2022-10-01T07:06:53.539Z,6.55
2022-10-01T07:09:25.867Z,8.45
2022-10-01T07:11:54.259Z,8.23
2022-10-01T07:14:22.521Z,9.68
2022-10-01T07:16:50.911Z,11.18
2022-10-01T07:19:19.626Z,11.43
2022-10-01T07:21:52.255Z,10.52
2022-10-01T07:24:20.872Z,9.60
2022-10-01T07:26:51.230Z,9.38
2022-10-01T07:29:19.547Z,6.82
2022-10-01T07:31:48.137Z,9.43
2022-10-01T07:34:16.564Z,9.00
2022-10-01T07:36:46.363Z,8.35
2022-10-01T07:39:15.236Z,10.07
2022-10-01T07:41:45.961Z,6.40
2022-10-01T07:44:14.392Z,9.00
2022-10-01T07:46:42.661Z,6.78
2022-10-01T07:49:11.060Z,7.50
2022-10-01T07:51:39.659Z,7.05
2022-10-01T07:54:08.451Z,6.47
2022-10-01T07:56:36.851Z,7.30
2022-10-01T07:59:05.174Z,6.90
2022-10-01T08:01:33.862Z,10.48
2022-10-01T08:04:22.423Z,4.95
2022-10-01T08:06:51.493Z,4.82
2022-10-01T08:09:20.859Z,4.80
2022-10-01T08:11:49.217Z,4.55
2022-10-01T08:14:18.781Z,3.55
2022-10-01T08:16:47.830Z,4.43
2022-10-01T08:19:16.326Z,3.58
2022-10-01T08:21:44.704Z,2.30
2022-10-01T08:24:13.286Z,3.25
2022-10-01T08:26:41.805Z,2.30
2022-10-01T08:29:14.834Z,3.80
2022-10-01T08:31:45.818Z,2.72
2022-10-01T08:34:14.983Z,5.50
2022-10-01T08:36:43.525Z,5.38
2022-10-01T08:39:13.801Z,4.65
2022-10-01T08:42:02.403Z,2.90
2022-10-01T08:44:38.209Z,2.22
2022-10-01T08:47:10.748Z,3.15
2022-10-01T08:49:51.224Z,2.67
2022-10-01T08:52:23.544Z,3.22
2022-10-01T08:54:54.223Z,2.05
2022-10-01T08:57:26.015Z,2.88
2022-10-01T08:59:56.315Z,2.83
2022-10-01T09:02:32.591Z,3.25
2022-10-01T09:05:03.338Z,2.35
2022-10-01T09:08:44.000Z,2.55
2022-10-01T09:11:43.564Z,2.15
2022-10-01T09:14:27.860Z,1.58
2022-10-01T09:17:23.779Z,2.08
2022-10-01T09:20:07.065Z,2.90
2022-10-01T09:22:44.800Z,2.20
2022-10-01T09:25:33.403Z,1.70
2022-10-01T09:28:19.731Z,3.15
2022-10-01T09:31:16.744Z,4.80
2022-10-01T09:33:51.775Z,2.15
2022-10-01T09:36:39.799Z,2.58
2022-10-01T09:39:30.153Z,1.77
2022-10-01T09:42:00.152Z,1.80
2022-10-01T09:44:29.784Z,1.83
2022-10-01T09:46:58.380Z,1.58
2022-10-01T09:49:44.147Z,1.42
2022-10-01T09:52:34.847Z,1.25
2022-10-01T09:55:11.739Z,3.70
2022-10-01T09:57:55.797Z,2.88
2022-10-01T10:00:26.013Z,1.35
2022-10-01T10:02:55.088Z,1.45
2022-10-01T10:05:27.780Z,2.05
2022-10-01T10:07:58.856Z,1.63
2022-10-01T10:10:40.945Z,1.55
2022-10-01T10:13:26.285Z,1.60
2022-10-01T10:16:00.604Z,1.98
2022-10-01T10:18:52.380Z,1.27
2022-10-01T10:21:25.986Z,1.20
2022-10-01T10:23:56.767Z,1.55
2022-10-01T10:26:36.176Z,1.65
2022-10-01T10:29:06.196Z,2.47
2022-10-01T10:31:45.701Z,2.00
2022-10-01T10:34:33.629Z,1.42
2022-10-01T10:37:05.955Z,1.77
2022-10-01T10:39:39.634Z,2.03
2022-10-01T10:42:09.709Z,1.67
2022-10-01T10:44:40.162Z,1.00
2022-10-01T10:47:15.034Z,2.33
2022-10-01T10:50:00.385Z,1.50
2022-10-01T10:52:36.846Z,1.13
2022-10-01T10:55:31.357Z,2.08
2022-10-01T10:58:14.946Z,0.82
2022-10-01T11:00:50.671Z,0.80
2022-10-01T11:03:29.671Z,1.70
2022-10-01T11:06:10.321Z,1.40
2022-10-01T11:08:45.317Z,0.93
2022-10-01T11:11:55.528Z,1.85
2022-10-01T11:14:29.956Z,1.00
2022-10-01T11:17:18.862Z,1.17
2022-10-01T11:20:30.440Z,1.02
2022-10-01T11:23:28.039Z,1.00
2022-10-01T11:26:30.728Z,1.10
2022-10-01T11:29:43.828Z,1.63
2022-10-01T11:32:40.536Z,2.03
2022-10-01T11:35:27.117Z,1.30
2022-10-01T11:38:13.971Z,1.13
2022-10-01T11:40:43.955Z,2.20
2022-10-01T11:43:27.564Z,1.45
2022-10-01T11:46:08.951Z,1.27
2022-10-01T11:48:44.384Z,0.75
2022-10-01T11:51:18.473Z,2.45
2022-10-01T11:53:49.527Z,0.90
2022-10-01T11:56:41.567Z,0.65
2022-10-01T11:59:23.025Z,0.77
2022-10-01T12:02:18.236Z,0.98
2022-10-01T12:04:51.345Z,0.85
2022-10-01T12:07:42.462Z,0.80
2022-10-01T12:10:26.002Z,1.05
2022-10-01T12:13:21.168Z,1.73
2022-10-01T12:16:15.853Z,0.80
2022-10-01T12:19:05.774Z,0.85
2022-10-01T12:21:45.393Z,1.08
2022-10-01T12:24:16.435Z,0.98
2022-10-01T12:27:06.848Z,1.00
2022-10-01T12:29:38.866Z,1.00
2022-10-01T12:32:26.403Z,0.90
2022-10-01T12:35:02.788Z,0.80
2022-10-01T12:37:55.356Z,2.10
2022-10-01T12:40:40.695Z,1.10
2022-10-01T12:43:36.914Z,0.88
2022-10-01T12:46:09.694Z,0.80
2022-10-01T12:49:06.738Z,0.93
2022-10-01T12:51:40.679Z,1.92
2022-10-01T12:54:31.527Z,0.95
2022-10-01T12:57:25.108Z,1.20
2022-10-01T13:00:12.217Z,1.35
2022-10-01T13:02:58.002Z,0.85
2022-10-01T13:05:42.692Z,1.48
2022-10-01T13:08:16.727Z,1.38
2022-10-01T13:11:13.445Z,1.35
2022-10-01T13:13:44.685Z,1.88
2022-10-01T13:16:30.171Z,1.00
2022-10-01T13:19:17.903Z,1.77
2022-10-01T13:22:13.179Z,1.48
2022-10-01T13:24:53.090Z,1.15
2022-10-01T13:27:40.930Z,1.35
2022-10-01T13:30:27.579Z,1.08
2022-10-01T13:32:58.617Z,1.10
2022-10-01T13:35:39.758Z,1.02
2022-10-01T13:38:46.186Z,1.08
2022-10-01T13:41:22.646Z,2.40
2022-10-01T13:44:25.495Z,9.15
2022-10-01T13:47:02.786Z,3.60
2022-10-01T13:49:31.357Z,2.42
2022-10-01T13:51:59.847Z,2.90
2022-10-01T13:54:43.647Z,2.72
2022-10-01T13:57:39.645Z,2.97
2022-10-01T14:00:09.834Z,1.83
2022-10-01T14:02:50.433Z,1.40
2022-10-01T14:05:29.091Z,1.65
2022-10-01T14:08:12.011Z,1.15
2022-10-01T14:11:05.668Z,1.85
2022-10-01T14:13:52.656Z,1.10
2022-10-01T14:16:21.045Z,1.98
2022-10-01T14:18:53.796Z,0.95
2022-10-01T14:21:28.960Z,3.60
2022-10-01T14:24:19.125Z,1.63
2022-10-01T14:27:20.975Z,1.00
2022-10-01T14:30:08.469Z,2.15
2022-10-01T14:32:51.911Z,2.53
2022-10-01T14:35:41.435Z,1.38
2022-10-01T14:38:20.374Z,2.17
2022-10-01T14:40:52.224Z,1.50
2022-10-01T14:43:32.108Z,1.20
2022-10-01T14:46:05.227Z,1.20
2022-10-01T14:48:35.173Z,0.80
2022-10-01T14:51:08.016Z,1.55
2022-10-01T14:53:38.896Z,1.55
2022-10-01T14:56:09.230Z,1.20
2022-10-01T14:58:42.544Z,1.55
2022-10-01T15:01:22.097Z,1.67
2022-10-01T15:03:51.094Z,1.00
2022-10-01T15:06:26.330Z,0.95
2022-10-01T15:08:57.575Z,0.95
2022-10-01T15:11:31.954Z,1.00
2022-10-01T15:14:07.184Z,2.33
2022-10-01T15:16:35.933Z,3.08
2022-10-01T15:19:08.827Z,2.00
2022-10-01T15:21:51.971Z,3.13
2022-10-01T15:24:41.879Z,1.88
2022-10-01T15:27:15.133Z,1.20
2022-10-01T15:29:45.488Z,0.90
2022-10-01T15:32:15.575Z,1.25
2022-10-01T15:34:49.852Z,0.93
2022-10-01T15:37:37.426Z,7.75
2022-10-01T15:40:12.059Z,1.67
2022-10-01T15:42:42.385Z,1.08
2022-10-01T15:45:21.840Z,2.30
2022-10-01T15:47:59.383Z,3.85
2022-10-01T15:50:44.037Z,1.15
2022-10-01T15:53:19.376Z,1.35
2022-10-01T15:55:51.663Z,1.58
2022-10-01T15:58:22.939Z,1.42
2022-10-01T16:01:10.391Z,2.05
2022-10-01T16:03:41.950Z,1.67
2022-10-01T16:06:23.721Z,3.70
2022-10-01T16:09:24.445Z,1.30
2022-10-01T16:12:00.520Z,1.58
2022-10-01T16:14:40.893Z,1.75
2022-10-01T16:17:23.042Z,3.30
2022-10-01T16:19:57.174Z,4.20
2022-10-01T16:22:32.625Z,3.67
2022-10-01T16:25:09.881Z,4.32
2022-10-01T16:28:02.295Z,2.30
2022-10-01T16:30:52.390Z,3.25
2022-10-01T16:33:40.736Z,3.28
2022-10-01T16:36:10.274Z,2.90
2022-10-01T16:38:38.843Z,2.45
2022-10-01T16:41:10.030Z,2.75
2022-10-01T16:43:40.237Z,4.10
2022-10-01T16:46:12.686Z,4.25
2022-10-01T16:48:43.738Z,3.83
2022-10-01T16:51:18.175Z,3.08
2022-10-01T16:53:49.228Z,3.22
2022-10-01T16:56:27.196Z,3.25
2022-10-01T16:58:57.563Z,6.00
2022-10-01T17:01:31.470Z,13.32
2022-10-01T17:04:03.549Z,9.32
2022-10-01T17:06:33.084Z,14.57
2022-10-01T17:09:02.930Z,30.55
2022-10-01T17:11:37.288Z,16.00
2022-10-01T17:17:07.680Z,11.38
2022-10-01T17:22:40.609Z,12.85
2022-10-01T17:25:23.753Z,12.38
2022-10-01T17:28:02.985Z,11.70
2022-10-01T17:30:45.557Z,9.75
2022-10-01T17:33:24.371Z,12.18
2022-10-01T17:36:04.217Z,11.10
2022-10-01T17:38:36.825Z,10.77
2022-10-01T17:41:08.249Z,9.40
2022-10-01T17:43:41.658Z,8.38
2022-10-01T17:46:18.821Z,9.00
2022-10-01T17:48:52.199Z,6.80
2022-10-01T17:51:30.252Z,7.78
2022-10-01T17:54:06.036Z,5.88
2022-10-01T17:56:34.568Z,5.40
2022-10-01T17:59:05.386Z,6.70
2022-10-01T18:01:49.384Z,8.05
2022-10-01T18:04:19.287Z,4.13
2022-10-01T18:06:50.289Z,6.10
2022-10-01T18:09:19.424Z,10.27
2022-10-01T18:11:49.882Z,4.13
2022-10-01T18:14:19.063Z,3.35
2022-10-01T18:16:47.680Z,10.10
2022-10-01T18:22:14.769Z,15.82
2022-10-01T18:24:51.033Z,6.78
2022-10-01T18:27:29.516Z,4.03
2022-10-01T18:30:24.227Z,3.90
2022-10-01T18:33:04.858Z,17.33
2022-10-01T18:35:36.032Z,6.35
2022-10-01T18:41:07.938Z,4.28
2022-10-01T18:43:43.131Z,2.28
2022-10-01T18:46:44.427Z,2.45
2022-10-01T18:50:12.996Z,6.22
2022-10-01T18:52:41.331Z,4.53
2022-10-01T18:55:41.866Z,12.10
2022-10-01T18:58:50.028Z,22.98
2022-10-01T19:01:32.992Z,16.98
2022-10-01T19:04:27.812Z,6.10
2022-10-01T19:07:27.840Z,4.88
2022-10-01T19:10:07.451Z,3.42
2022-10-01T19:16:41.418Z,9.70
2022-10-01T19:19:28.559Z,5.88
2022-10-01T19:22:06.368Z,12.93
2022-10-01T19:24:52.796Z,4.95
2022-10-01T19:27:33.942Z,5.43
2022-10-01T19:30:16.301Z,3.90
2022-10-01T19:33:07.191Z,5.43
2022-10-01T19:41:52.334Z,4.00
2022-10-01T19:44:36.047Z,4.05
2022-10-01T19:47:21.225Z,4.13
2022-10-01T19:49:50.701Z,6.30
2022-10-01T19:52:25.544Z,4.20
2022-10-01T19:55:02.511Z,9.60
2022-10-01T19:57:39.131Z,7.10
2022-10-01T20:00:11.983Z,7.30
2022-10-01T20:02:52.243Z,7.68
2022-10-01T20:05:30.422Z,5.75
2022-10-01T20:08:04.693Z,5.35
2022-10-01T20:10:54.132Z,3.55
2022-10-01T20:13:34.923Z,1.27
2022-10-01T20:16:31.115Z,1.65
2022-10-01T20:19:29.045Z,1.63
2022-10-01T20:22:10.113Z,6.05
2022-10-01T20:24:44.555Z,1.58
2022-10-01T20:27:39.665Z,5.82
2022-10-01T20:39:42.367Z,2.35
2022-10-01T20:47:42.264Z,0.98
2022-10-01T20:50:14.840Z,1.05
2022-10-01T20:53:04.401Z,1.00
2022-10-01T20:55:39.222Z,32.72
2022-10-01T20:58:14.760Z,1.30
2022-10-01T21:00:43.741Z,1.42
2022-10-01T21:03:23.475Z,1.10
2022-10-01T21:06:01.573Z,3.35
2022-10-01T21:08:51.031Z,0.80
2022-10-01T21:11:38.674Z,3.42
2022-10-01T21:14:22.436Z,2.38
2022-10-01T21:17:06.319Z,1.92
2022-10-01T21:20:02.448Z,1.85
2022-10-01T21:23:05.300Z,1.60
2022-10-01T21:25:52.518Z,1.40
2022-10-01T21:28:31.695Z,1.63
2022-10-01T21:31:42.387Z,2.22
2022-10-01T21:34:20.288Z,1.63
2022-10-01T21:37:15.186Z,2.83
2022-10-01T21:40:05.485Z,1.70
2022-10-01T21:42:55.375Z,1.50
2022-10-01T21:45:23.693Z,1.30
2022-10-01T21:48:12.704Z,1.40
2022-10-01T21:50:55.828Z,1.40
2022-10-01T21:53:33.240Z,1.50
2022-10-01T21:56:24.301Z,6.05
2022-10-01T21:59:29.321Z,4.82
2022-10-01T22:02:19.775Z,2.05
2022-10-01T22:04:54.264Z,1.65
2022-10-01T22:07:36.738Z,1.80
2022-10-01T22:10:16.509Z,1.83
2022-10-01T22:12:47.926Z,5.22
2022-10-01T22:15:37.154Z,4.05
2022-10-01T22:18:07.035Z,3.00
2022-10-01T22:20:35.823Z,2.65
2022-10-01T22:23:08.868Z,1.88
2022-10-01T22:25:41.251Z,2.00
2022-10-01T22:28:13.629Z,2.35
2022-10-01T22:30:42.081Z,3.47
2022-10-01T22:33:20.700Z,4.50
2022-10-01T22:36:02.554Z,4.15
2022-10-01T22:38:39.105Z,3.47
2022-10-01T22:41:11.705Z,5.03
2022-10-01T22:43:42.067Z,5.18
2022-10-01T22:46:30.046Z,3.30
2022-10-01T22:49:05.374Z,3.58
2022-10-01T22:52:14.929Z,4.43
2022-10-01T22:54:43.194Z,4.22
2022-10-01T22:57:22.251Z,3.63
2022-10-01T23:00:02.904Z,4.70
2022-10-01T23:02:34.348Z,1.38
2022-10-01T23:05:08.849Z,4.65
2022-10-01T23:07:48.646Z,7.90
2022-10-01T23:10:25.903Z,3.88
2022-10-01T23:13:11.350Z,4.30
2022-10-01T23:16:06.811Z,8.45
2022-10-01T23:19:06.231Z,6.38
2022-10-01T23:21:40.164Z,2.60
2022-10-01T23:24:13.901Z,1.88
2022-10-01T23:26:48.131Z,1.30
2022-10-01T23:29:40.619Z,1.48
2022-10-01T23:32:25.399Z,2.85
2022-10-01T23:35:03.754Z,1.20
2022-10-01T23:37:45.171Z,1.35
2022-10-01T23:40:15.247Z,0.70
2022-10-01T23:42:51.854Z,0.70
2022-10-01T23:45:42.000Z,1.30
2022-10-01T23:48:24.352Z,1.40
2022-10-01T23:51:02.747Z,1.25
2022-10-01T23:54:03.806Z,1.05
2022-10-01T23:56:51.045Z,0.93
2022-10-01T23:59:24.793Z,1.20
